sensor_id;sensor_type;location;lat;lon;timestamp;temperature;humidity
44607;DHT22;30315;46.072;14.474;2023-07-31T00:01:21;24.80;74.60
44607;DHT22;30315;46.072;14.474;2023-07-31T00:03:49;24.80;74.70
44607;DHT22;30315;46.072;14.474;2023-07-31T00:06:16;24.80;75.30
44607;DHT22;30315;46.072;14.474;2023-07-31T00:08:43;24.80;75.50
44607;DHT22;30315;46.072;14.474;2023-07-31T00:11:11;24.80;75.80
44607;DHT22;30315;46.072;14.474;2023-07-31T00:13:38;24.80;75.30
44607;DHT22;30315;46.072;14.474;2023-07-31T00:16:05;24.80;75.40
44607;DHT22;30315;46.072;14.474;2023-07-31T00:18:32;24.80;75.20
44607;DHT22;30315;46.072;14.474;2023-07-31T00:20:59;24.70;75.40
44607;DHT22;30315;46.072;14.474;2023-07-31T00:23:26;24.70;75.90
44607;DHT22;30315;46.072;14.474;2023-07-31T00:25:53;24.60;76.20
44607;DHT22;30315;46.072;14.474;2023-07-31T00:28:20;24.60;76.60
44607;DHT22;30315;46.072;14.474;2023-07-31T00:30:47;24.50;75.90
44607;DHT22;30315;46.072;14.474;2023-07-31T00:33:14;24.50;75.90
44607;DHT22;30315;46.072;14.474;2023-07-31T00:35:41;24.50;76.40
44607;DHT22;30315;46.072;14.474;2023-07-31T00:38:08;24.40;76.30
44607;DHT22;30315;46.072;14.474;2023-07-31T00:40:36;24.40;76.20
44607;DHT22;30315;46.072;14.474;2023-07-31T00:43:04;24.40;76.30
44607;DHT22;30315;46.072;14.474;2023-07-31T00:45:31;24.40;76.40
44607;DHT22;30315;46.072;14.474;2023-07-31T00:47:59;24.40;76.80
44607;DHT22;30315;46.072;14.474;2023-07-31T00:50:27;24.40;77.10
44607;DHT22;30315;46.072;14.474;2023-07-31T00:52:54;24.40;77.00
44607;DHT22;30315;46.072;14.474;2023-07-31T00:55:22;24.40;77.10
44607;DHT22;30315;46.072;14.474;2023-07-31T00:57:49;24.30;76.40
44607;DHT22;30315;46.072;14.474;2023-07-31T01:00:18;24.30;76.30
44607;DHT22;30315;46.072;14.474;2023-07-31T01:02:46;24.30;76.30
44607;DHT22;30315;46.072;14.474;2023-07-31T01:05:13;24.30;76.80
44607;DHT22;30315;46.072;14.474;2023-07-31T01:08:00;24.20;76.90
44607;DHT22;30315;46.072;14.474;2023-07-31T01:10:36;24.20;77.70
44607;DHT22;30315;46.072;14.474;2023-07-31T01:13:08;24.20;77.80
44607;DHT22;30315;46.072;14.474;2023-07-31T01:15:36;24.10;77.10
44607;DHT22;30315;46.072;14.474;2023-07-31T01:18:04;24.10;77.40
44607;DHT22;30315;46.072;14.474;2023-07-31T01:20:32;24.10;77.50
44607;DHT22;30315;46.072;14.474;2023-07-31T01:23:25;24.10;77.50
44607;DHT22;30315;46.072;14.474;2023-07-31T01:25:59;24.10;78.10
44607;DHT22;30315;46.072;14.474;2023-07-31T01:31:25;24.00;77.80
44607;DHT22;30315;46.072;14.474;2023-07-31T01:33:56;24.00;78.20
44607;DHT22;30315;46.072;14.474;2023-07-31T01:36:23;23.90;78.20
44607;DHT22;30315;46.072;14.474;2023-07-31T01:38:50;23.90;78.60
44607;DHT22;30315;46.072;14.474;2023-07-31T01:41:18;23.90;78.40
44607;DHT22;30315;46.072;14.474;2023-07-31T01:43:46;23.90;78.50
44607;DHT22;30315;46.072;14.474;2023-07-31T01:46:13;23.90;78.30
44607;DHT22;30315;46.072;14.474;2023-07-31T01:48:40;23.90;78.50
44607;DHT22;30315;46.072;14.474;2023-07-31T01:51:07;23.90;78.30
44607;DHT22;30315;46.072;14.474;2023-07-31T01:53:35;23.90;78.10
44607;DHT22;30315;46.072;14.474;2023-07-31T01:56:02;23.80;78.00
44607;DHT22;30315;46.072;14.474;2023-07-31T01:58:30;23.80;78.20
44607;DHT22;30315;46.072;14.474;2023-07-31T02:00:57;23.80;78.60
44607;DHT22;30315;46.072;14.474;2023-07-31T02:03:24;23.80;78.90
44607;DHT22;30315;46.072;14.474;2023-07-31T02:05:54;23.80;78.50
44607;DHT22;30315;46.072;14.474;2023-07-31T02:08:21;23.70;78.30
44607;DHT22;30315;46.072;14.474;2023-07-31T02:10:48;23.70;78.70
44607;DHT22;30315;46.072;14.474;2023-07-31T02:13:15;23.70;78.60
44607;DHT22;30315;46.072;14.474;2023-07-31T02:15:42;23.70;79.00
44607;DHT22;30315;46.072;14.474;2023-07-31T02:18:10;23.70;79.20
44607;DHT22;30315;46.072;14.474;2023-07-31T02:23:26;23.60;79.30
44607;DHT22;30315;46.072;14.474;2023-07-31T02:25:53;23.60;79.30
44607;DHT22;30315;46.072;14.474;2023-07-31T02:28:19;23.60;79.20
44607;DHT22;30315;46.072;14.474;2023-07-31T02:30:47;23.60;79.40
44607;DHT22;30315;46.072;14.474;2023-07-31T02:33:14;23.60;79.60
44607;DHT22;30315;46.072;14.474;2023-07-31T02:35:42;23.60;79.90
44607;DHT22;30315;46.072;14.474;2023-07-31T02:38:09;23.60;80.00
44607;DHT22;30315;46.072;14.474;2023-07-31T02:40:36;23.60;80.00
44607;DHT22;30315;46.072;14.474;2023-07-31T02:43:03;23.60;80.00
44607;DHT22;30315;46.072;14.474;2023-07-31T02:45:30;23.60;80.00
44607;DHT22;30315;46.072;14.474;2023-07-31T02:47:57;23.50;80.10
44607;DHT22;30315;46.072;14.474;2023-07-31T02:50:24;23.60;80.30
44607;DHT22;30315;46.072;14.474;2023-07-31T02:52:51;23.60;80.30
44607;DHT22;30315;46.072;14.474;2023-07-31T02:55:18;23.60;80.10
44607;DHT22;30315;46.072;14.474;2023-07-31T02:57:45;23.60;79.90
44607;DHT22;30315;46.072;14.474;2023-07-31T03:00:11;23.50;80.00
44607;DHT22;30315;46.072;14.474;2023-07-31T03:02:38;23.50;80.10
44607;DHT22;30315;46.072;14.474;2023-07-31T03:05:06;23.60;80.30
44607;DHT22;30315;46.072;14.474;2023-07-31T03:07:33;23.60;80.50
44607;DHT22;30315;46.072;14.474;2023-07-31T03:10:00;23.50;80.50
44607;DHT22;30315;46.072;14.474;2023-07-31T03:12:27;23.50;80.50
44607;DHT22;30315;46.072;14.474;2023-07-31T03:14:54;23.50;80.50
44607;DHT22;30315;46.072;14.474;2023-07-31T03:17:21;23.50;80.50
44607;DHT22;30315;46.072;14.474;2023-07-31T03:19:48;23.50;80.60
44607;DHT22;30315;46.072;14.474;2023-07-31T03:22:15;23.50;81.00
44607;DHT22;30315;46.072;14.474;2023-07-31T03:24:41;23.50;80.90
44607;DHT22;30315;46.072;14.474;2023-07-31T03:27:09;23.40;81.10
44607;DHT22;30315;46.072;14.474;2023-07-31T03:29:35;23.40;81.00
44607;DHT22;30315;46.072;14.474;2023-07-31T03:32:03;23.40;80.60
44607;DHT22;30315;46.072;14.474;2023-07-31T03:34:30;23.40;81.20
44607;DHT22;30315;46.072;14.474;2023-07-31T03:36:58;23.40;81.10
44607;DHT22;30315;46.072;14.474;2023-07-31T03:39:25;23.30;80.90
44607;DHT22;30315;46.072;14.474;2023-07-31T03:41:53;23.40;81.10
44607;DHT22;30315;46.072;14.474;2023-07-31T03:44:20;23.30;81.10
44607;DHT22;30315;46.072;14.474;2023-07-31T03:46:47;23.30;81.00
44607;DHT22;30315;46.072;14.474;2023-07-31T03:49:14;23.30;81.10
44607;DHT22;30315;46.072;14.474;2023-07-31T03:51:41;23.30;81.40
44607;DHT22;30315;46.072;14.474;2023-07-31T03:54:08;23.20;81.30
44607;DHT22;30315;46.072;14.474;2023-07-31T03:56:35;23.20;81.60
44607;DHT22;30315;46.072;14.474;2023-07-31T03:59:02;23.20;81.30
44607;DHT22;30315;46.072;14.474;2023-07-31T04:01:29;23.20;81.20
44607;DHT22;30315;46.072;14.474;2023-07-31T04:03:56;23.20;81.30
44607;DHT22;30315;46.072;14.474;2023-07-31T04:06:23;23.20;81.30
44607;DHT22;30315;46.072;14.474;2023-07-31T04:08:50;23.20;81.10
44607;DHT22;30315;46.072;14.474;2023-07-31T04:11:17;23.20;81.10
44607;DHT22;30315;46.072;14.474;2023-07-31T04:13:44;23.10;81.00
44607;DHT22;30315;46.072;14.474;2023-07-31T04:16:11;23.10;81.60
44607;DHT22;30315;46.072;14.474;2023-07-31T04:18:38;23.10;81.60
44607;DHT22;30315;46.072;14.474;2023-07-31T04:21:05;23.10;81.60
44607;DHT22;30315;46.072;14.474;2023-07-31T04:23:32;23.10;81.40
44607;DHT22;30315;46.072;14.474;2023-07-31T04:25:59;23.10;81.30
44607;DHT22;30315;46.072;14.474;2023-07-31T04:28:26;23.10;81.30
44607;DHT22;30315;46.072;14.474;2023-07-31T04:30:53;23.00;81.20
44607;DHT22;30315;46.072;14.474;2023-07-31T04:33:20;23.00;81.60
44607;DHT22;30315;46.072;14.474;2023-07-31T04:35:51;23.00;82.50
44607;DHT22;30315;46.072;14.474;2023-07-31T04:38:20;22.90;81.90
44607;DHT22;30315;46.072;14.474;2023-07-31T04:40:47;23.00;82.10
44607;DHT22;30315;46.072;14.474;2023-07-31T04:43:14;23.00;82.00
44607;DHT22;30315;46.072;14.474;2023-07-31T04:45:45;23.00;81.80
44607;DHT22;30315;46.072;14.474;2023-07-31T04:48:13;23.00;81.70
44607;DHT22;30315;46.072;14.474;2023-07-31T04:50:41;23.00;81.80
44607;DHT22;30315;46.072;14.474;2023-07-31T04:53:08;23.00;81.70
44607;DHT22;30315;46.072;14.474;2023-07-31T04:55:35;23.00;82.00
44607;DHT22;30315;46.072;14.474;2023-07-31T04:58:01;23.00;82.00
44607;DHT22;30315;46.072;14.474;2023-07-31T05:00:28;23.00;82.00
44607;DHT22;30315;46.072;14.474;2023-07-31T05:02:55;23.00;81.90
44607;DHT22;30315;46.072;14.474;2023-07-31T05:05:23;23.00;81.50
44607;DHT22;30315;46.072;14.474;2023-07-31T05:07:50;23.10;81.50
44607;DHT22;30315;46.072;14.474;2023-07-31T05:10:16;23.10;81.40
44607;DHT22;30315;46.072;14.474;2023-07-31T05:12:43;23.00;81.50
44607;DHT22;30315;46.072;14.474;2023-07-31T05:15:10;23.00;81.70
44607;DHT22;30315;46.072;14.474;2023-07-31T05:17:37;23.10;81.60
44607;DHT22;30315;46.072;14.474;2023-07-31T05:20:05;23.10;81.80
44607;DHT22;30315;46.072;14.474;2023-07-31T05:22:32;23.10;81.80
44607;DHT22;30315;46.072;14.474;2023-07-31T05:24:59;23.20;81.90
44607;DHT22;30315;46.072;14.474;2023-07-31T05:27:26;23.20;82.20
44607;DHT22;30315;46.072;14.474;2023-07-31T05:29:53;23.20;82.20
44607;DHT22;30315;46.072;14.474;2023-07-31T05:32:20;23.30;82.10
44607;DHT22;30315;46.072;14.474;2023-07-31T05:34:47;23.30;82.20
44607;DHT22;30315;46.072;14.474;2023-07-31T05:37:14;23.40;82.60
44607;DHT22;30315;46.072;14.474;2023-07-31T05:39:41;23.40;82.30
44607;DHT22;30315;46.072;14.474;2023-07-31T05:42:08;23.40;82.70
44607;DHT22;30315;46.072;14.474;2023-07-31T05:44:35;23.60;83.10
44607;DHT22;30315;46.072;14.474;2023-07-31T05:47:02;23.60;81.90
44607;DHT22;30315;46.072;14.474;2023-07-31T05:49:29;23.70;81.70
44607;DHT22;30315;46.072;14.474;2023-07-31T05:51:56;23.70;81.50
44607;DHT22;30315;46.072;14.474;2023-07-31T05:54:23;23.60;81.30
44607;DHT22;30315;46.072;14.474;2023-07-31T05:56:49;23.70;81.60
44607;DHT22;30315;46.072;14.474;2023-07-31T05:59:16;23.70;80.70
44607;DHT22;30315;46.072;14.474;2023-07-31T06:01:43;23.80;80.80
44607;DHT22;30315;46.072;14.474;2023-07-31T06:04:10;23.70;81.00
44607;DHT22;30315;46.072;14.474;2023-07-31T06:06:37;23.80;80.00
44607;DHT22;30315;46.072;14.474;2023-07-31T06:09:05;23.80;79.60
44607;DHT22;30315;46.072;14.474;2023-07-31T06:11:32;23.80;79.40
44607;DHT22;30315;46.072;14.474;2023-07-31T06:13:59;23.80;79.10
44607;DHT22;30315;46.072;14.474;2023-07-31T06:16:26;23.80;78.90
44607;DHT22;30315;46.072;14.474;2023-07-31T06:18:54;23.80;79.20
44607;DHT22;30315;46.072;14.474;2023-07-31T06:21:21;23.80;78.90
44607;DHT22;30315;46.072;14.474;2023-07-31T06:23:48;23.80;78.00
44607;DHT22;30315;46.072;14.474;2023-07-31T06:26:14;23.90;77.80
44607;DHT22;30315;46.072;14.474;2023-07-31T06:28:41;23.90;77.50
44607;DHT22;30315;46.072;14.474;2023-07-31T06:31:09;23.80;77.10
44607;DHT22;30315;46.072;14.474;2023-07-31T06:33:36;23.80;77.30
44607;DHT22;30315;46.072;14.474;2023-07-31T06:36:03;23.90;77.90
44607;DHT22;30315;46.072;14.474;2023-07-31T06:38:30;23.90;77.90
44607;DHT22;30315;46.072;14.474;2023-07-31T06:40:57;23.90;77.40
44607;DHT22;30315;46.072;14.474;2023-07-31T06:43:24;23.90;77.10
44607;DHT22;30315;46.072;14.474;2023-07-31T06:45:54;23.90;77.10
44607;DHT22;30315;46.072;14.474;2023-07-31T06:48:21;24.00;77.70
44607;DHT22;30315;46.072;14.474;2023-07-31T06:50:48;24.00;77.70
44607;DHT22;30315;46.072;14.474;2023-07-31T06:53:15;24.00;77.50
44607;DHT22;30315;46.072;14.474;2023-07-31T06:55:42;24.00;78.00
44607;DHT22;30315;46.072;14.474;2023-07-31T06:58:09;24.00;78.50
44607;DHT22;30315;46.072;14.474;2023-07-31T07:00:37;24.00;77.80
44607;DHT22;30315;46.072;14.474;2023-07-31T07:03:03;24.10;76.90
44607;DHT22;30315;46.072;14.474;2023-07-31T07:05:31;24.10;76.80
44607;DHT22;30315;46.072;14.474;2023-07-31T07:07:58;24.20;76.90
44607;DHT22;30315;46.072;14.474;2023-07-31T07:10:25;24.20;77.30
44607;DHT22;30315;46.072;14.474;2023-07-31T07:12:52;24.20;77.00
44607;DHT22;30315;46.072;14.474;2023-07-31T07:15:19;24.20;76.50
44607;DHT22;30315;46.072;14.474;2023-07-31T07:17:46;24.20;76.70
44607;DHT22;30315;46.072;14.474;2023-07-31T07:20:13;24.20;77.10
44607;DHT22;30315;46.072;14.474;2023-07-31T07:22:40;24.30;77.40
44607;DHT22;30315;46.072;14.474;2023-07-31T07:25:09;24.30;77.00
44607;DHT22;30315;46.072;14.474;2023-07-31T07:27:36;24.40;77.20
44607;DHT22;30315;46.072;14.474;2023-07-31T07:30:04;24.50;76.80
44607;DHT22;30315;46.072;14.474;2023-07-31T07:32:31;24.60;76.50
44607;DHT22;30315;46.072;14.474;2023-07-31T07:34:58;24.60;76.30
44607;DHT22;30315;46.072;14.474;2023-07-31T07:37:25;24.70;76.20
44607;DHT22;30315;46.072;14.474;2023-07-31T07:39:52;24.70;76.30
44607;DHT22;30315;46.072;14.474;2023-07-31T07:42:19;24.70;75.40
44607;DHT22;30315;46.072;14.474;2023-07-31T07:44:46;24.80;75.60
44607;DHT22;30315;46.072;14.474;2023-07-31T07:47:13;24.80;75.50
44607;DHT22;30315;46.072;14.474;2023-07-31T07:49:40;24.80;75.50
44607;DHT22;30315;46.072;14.474;2023-07-31T07:52:07;24.90;75.30
44607;DHT22;30315;46.072;14.474;2023-07-31T07:54:33;24.90;75.00
44607;DHT22;30315;46.072;14.474;2023-07-31T07:57:00;24.90;75.00
44607;DHT22;30315;46.072;14.474;2023-07-31T07:59:27;25.00;75.00
44607;DHT22;30315;46.072;14.474;2023-07-31T08:01:54;25.10;74.80
44607;DHT22;30315;46.072;14.474;2023-07-31T08:04:21;25.10;74.60
44607;DHT22;30315;46.072;14.474;2023-07-31T08:06:48;25.10;74.80
44607;DHT22;30315;46.072;14.474;2023-07-31T08:09:15;25.20;75.00
44607;DHT22;30315;46.072;14.474;2023-07-31T08:11:42;25.20;75.00
44607;DHT22;30315;46.072;14.474;2023-07-31T08:14:09;25.30;75.00
44607;DHT22;30315;46.072;14.474;2023-07-31T08:16:36;25.30;74.40
44607;DHT22;30315;46.072;14.474;2023-07-31T08:19:03;25.40;73.70
44607;DHT22;30315;46.072;14.474;2023-07-31T08:21:31;25.40;73.50
44607;DHT22;30315;46.072;14.474;2023-07-31T08:23:58;25.40;72.70
44607;DHT22;30315;46.072;14.474;2023-07-31T08:26:25;25.40;72.70
44607;DHT22;30315;46.072;14.474;2023-07-31T08:28:52;25.50;73.20
44607;DHT22;30315;46.072;14.474;2023-07-31T08:31:19;25.60;72.80
44607;DHT22;30315;46.072;14.474;2023-07-31T08:33:46;25.60;72.50
44607;DHT22;30315;46.072;14.474;2023-07-31T08:36:13;25.60;71.80
44607;DHT22;30315;46.072;14.474;2023-07-31T08:38:54;25.60;69.90
44607;DHT22;30315;46.072;14.474;2023-07-31T08:41:22;25.70;70.20
44607;DHT22;30315;46.072;14.474;2023-07-31T08:43:50;25.70;70.90
44607;DHT22;30315;46.072;14.474;2023-07-31T08:46:19;25.80;71.10
44607;DHT22;30315;46.072;14.474;2023-07-31T08:48:47;25.80;71.30
44607;DHT22;30315;46.072;14.474;2023-07-31T08:51:15;25.90;70.70
44607;DHT22;30315;46.072;14.474;2023-07-31T08:53:42;26.00;70.60
44607;DHT22;30315;46.072;14.474;2023-07-31T08:56:10;26.00;69.40
44607;DHT22;30315;46.072;14.474;2023-07-31T08:58:38;26.00;68.80
44607;DHT22;30315;46.072;14.474;2023-07-31T09:01:07;26.00;69.80
44607;DHT22;30315;46.072;14.474;2023-07-31T09:03:34;26.10;69.50
44607;DHT22;30315;46.072;14.474;2023-07-31T09:06:03;26.20;70.40
44607;DHT22;30315;46.072;14.474;2023-07-31T09:08:32;26.20;69.60
44607;DHT22;30315;46.072;14.474;2023-07-31T09:11:01;26.20;69.30
44607;DHT22;30315;46.072;14.474;2023-07-31T09:13:30;26.30;69.50
44607;DHT22;30315;46.072;14.474;2023-07-31T09:15:58;26.40;69.30
44607;DHT22;30315;46.072;14.474;2023-07-31T09:18:25;26.40;68.60
44607;DHT22;30315;46.072;14.474;2023-07-31T09:21:05;26.40;68.00
44607;DHT22;30315;46.072;14.474;2023-07-31T09:23:46;26.50;67.80
44607;DHT22;30315;46.072;14.474;2023-07-31T09:26:34;26.60;68.20
44607;DHT22;30315;46.072;14.474;2023-07-31T09:29:06;26.70;67.40
44607;DHT22;30315;46.072;14.474;2023-07-31T09:31:42;26.70;66.60
44607;DHT22;30315;46.072;14.474;2023-07-31T09:34:09;26.70;67.00
44607;DHT22;30315;46.072;14.474;2023-07-31T09:36:50;26.70;67.70
44607;DHT22;30315;46.072;14.474;2023-07-31T09:39:20;26.80;67.90
44607;DHT22;30315;46.072;14.474;2023-07-31T09:41:53;26.90;67.80
44607;DHT22;30315;46.072;14.474;2023-07-31T09:44:20;26.90;67.00
44607;DHT22;30315;46.072;14.474;2023-07-31T09:46:47;27.00;66.70
44607;DHT22;30315;46.072;14.474;2023-07-31T09:49:15;27.10;66.00
44607;DHT22;30315;46.072;14.474;2023-07-31T09:51:42;27.20;65.80
44607;DHT22;30315;46.072;14.474;2023-07-31T09:54:14;27.30;66.30
44607;DHT22;30315;46.072;14.474;2023-07-31T09:56:43;27.30;65.50
44607;DHT22;30315;46.072;14.474;2023-07-31T09:59:11;27.30;65.20
44607;DHT22;30315;46.072;14.474;2023-07-31T10:01:40;27.40;65.40
44607;DHT22;30315;46.072;14.474;2023-07-31T10:04:10;27.40;65.40
44607;DHT22;30315;46.072;14.474;2023-07-31T10:06:38;27.40;64.90
44607;DHT22;30315;46.072;14.474;2023-07-31T10:09:08;27.30;64.40
44607;DHT22;30315;46.072;14.474;2023-07-31T10:11:38;27.30;64.60
44607;DHT22;30315;46.072;14.474;2023-07-31T10:14:09;27.30;64.70
44607;DHT22;30315;46.072;14.474;2023-07-31T10:16:38;27.30;64.40
44607;DHT22;30315;46.072;14.474;2023-07-31T10:19:06;27.30;65.00
44607;DHT22;30315;46.072;14.474;2023-07-31T10:21:35;27.30;65.40
44607;DHT22;30315;46.072;14.474;2023-07-31T10:24:05;27.30;65.30
44607;DHT22;30315;46.072;14.474;2023-07-31T10:26:32;27.30;65.70
44607;DHT22;30315;46.072;14.474;2023-07-31T10:29:03;27.30;66.20
44607;DHT22;30315;46.072;14.474;2023-07-31T10:31:31;27.40;66.20
44607;DHT22;30315;46.072;14.474;2023-07-31T10:33:59;27.40;66.00
44607;DHT22;30315;46.072;14.474;2023-07-31T10:36:27;27.40;65.20
44607;DHT22;30315;46.072;14.474;2023-07-31T10:38:56;27.40;65.20
44607;DHT22;30315;46.072;14.474;2023-07-31T10:41:32;27.40;65.30
44607;DHT22;30315;46.072;14.474;2023-07-31T10:44:02;27.40;64.80
44607;DHT22;30315;46.072;14.474;2023-07-31T10:46:29;27.40;64.40
44607;DHT22;30315;46.072;14.474;2023-07-31T10:49:01;27.40;63.60
44607;DHT22;30315;46.072;14.474;2023-07-31T10:51:35;27.30;64.30
44607;DHT22;30315;46.072;14.474;2023-07-31T10:54:13;27.30;65.10
44607;DHT22;30315;46.072;14.474;2023-07-31T10:56:45;27.40;65.60
44607;DHT22;30315;46.072;14.474;2023-07-31T10:59:13;27.30;65.20
44607;DHT22;30315;46.072;14.474;2023-07-31T11:01:50;27.30;65.10
44607;DHT22;30315;46.072;14.474;2023-07-31T11:04:25;27.40;65.40
44607;DHT22;30315;46.072;14.474;2023-07-31T11:07:01;27.40;64.70
44607;DHT22;30315;46.072;14.474;2023-07-31T11:09:30;27.40;64.40
44607;DHT22;30315;46.072;14.474;2023-07-31T11:11:59;27.50;63.50
44607;DHT22;30315;46.072;14.474;2023-07-31T11:14:26;27.50;64.10
44607;DHT22;30315;46.072;14.474;2023-07-31T11:16:53;27.70;64.50
44607;DHT22;30315;46.072;14.474;2023-07-31T11:19:25;27.70;63.90
44607;DHT22;30315;46.072;14.474;2023-07-31T11:21:52;27.80;64.00
44607;DHT22;30315;46.072;14.474;2023-07-31T11:24:20;27.90;64.40
44607;DHT22;30315;46.072;14.474;2023-07-31T11:26:53;28.00;64.30
44607;DHT22;30315;46.072;14.474;2023-07-31T11:29:20;28.10;63.90
44607;DHT22;30315;46.072;14.474;2023-07-31T11:31:53;28.20;63.60
44607;DHT22;30315;46.072;14.474;2023-07-31T11:34:20;28.30;63.40
44607;DHT22;30315;46.072;14.474;2023-07-31T11:36:55;28.30;63.00
44607;DHT22;30315;46.072;14.474;2023-07-31T11:39:22;28.30;62.90
44607;DHT22;30315;46.072;14.474;2023-07-31T11:41:49;28.40;61.90
44607;DHT22;30315;46.072;14.474;2023-07-31T11:44:16;28.40;61.00
44607;DHT22;30315;46.072;14.474;2023-07-31T11:46:56;28.30;61.00
44607;DHT22;30315;46.072;14.474;2023-07-31T11:49:23;28.30;60.90
44607;DHT22;30315;46.072;14.474;2023-07-31T11:51:51;28.30;61.30
44607;DHT22;30315;46.072;14.474;2023-07-31T11:54:18;28.20;61.90
44607;DHT22;30315;46.072;14.474;2023-07-31T11:56:45;28.20;61.80
44607;DHT22;30315;46.072;14.474;2023-07-31T11:59:12;28.20;61.80
44607;DHT22;30315;46.072;14.474;2023-07-31T12:01:39;28.20;61.70
44607;DHT22;30315;46.072;14.474;2023-07-31T12:04:07;28.20;61.60
44607;DHT22;30315;46.072;14.474;2023-07-31T12:06:35;28.10;61.60
44607;DHT22;30315;46.072;14.474;2023-07-31T12:09:06;28.10;63.00
44607;DHT22;30315;46.072;14.474;2023-07-31T12:11:46;28.20;62.90
44607;DHT22;30315;46.072;14.474;2023-07-31T12:14:27;28.30;63.50
44607;DHT22;30315;46.072;14.474;2023-07-31T12:17:01;28.40;61.20
44607;DHT22;30315;46.072;14.474;2023-07-31T12:19:31;28.40;62.10
44607;DHT22;30315;46.072;14.474;2023-07-31T12:21:59;28.60;61.70
44607;DHT22;30315;46.072;14.474;2023-07-31T12:24:27;28.70;61.30
44607;DHT22;30315;46.072;14.474;2023-07-31T12:26:55;28.80;61.50
44607;DHT22;30315;46.072;14.474;2023-07-31T12:29:22;28.70;61.20
44607;DHT22;30315;46.072;14.474;2023-07-31T12:31:50;28.80;61.70
44607;DHT22;30315;46.072;14.474;2023-07-31T12:34:18;28.90;61.80
44607;DHT22;30315;46.072;14.474;2023-07-31T12:36:45;29.00;61.70
44607;DHT22;30315;46.072;14.474;2023-07-31T12:39:13;29.10;62.00
44607;DHT22;30315;46.072;14.474;2023-07-31T12:41:40;29.20;62.50
44607;DHT22;30315;46.072;14.474;2023-07-31T12:44:08;29.40;63.50
44607;DHT22;30315;46.072;14.474;2023-07-31T12:46:36;29.60;63.80
44607;DHT22;30315;46.072;14.474;2023-07-31T12:49:03;29.80;61.20
44607;DHT22;30315;46.072;14.474;2023-07-31T12:51:30;30.00;61.20
44607;DHT22;30315;46.072;14.474;2023-07-31T12:53:57;30.10;60.40
44607;DHT22;30315;46.072;14.474;2023-07-31T12:56:24;30.10;59.40
44607;DHT22;30315;46.072;14.474;2023-07-31T12:58:51;30.10;59.00
44607;DHT22;30315;46.072;14.474;2023-07-31T13:01:18;30.00;58.40
44607;DHT22;30315;46.072;14.474;2023-07-31T13:03:45;29.90;58.70
44607;DHT22;30315;46.072;14.474;2023-07-31T13:06:12;29.90;59.20
44607;DHT22;30315;46.072;14.474;2023-07-31T13:08:39;29.90;60.60
44607;DHT22;30315;46.072;14.474;2023-07-31T13:11:06;30.00;59.90
44607;DHT22;30315;46.072;14.474;2023-07-31T13:13:33;30.00;58.80
44607;DHT22;30315;46.072;14.474;2023-07-31T13:16:00;30.10;59.10
44607;DHT22;30315;46.072;14.474;2023-07-31T13:18:27;30.10;58.50
44607;DHT22;30315;46.072;14.474;2023-07-31T13:20:54;30.00;58.30
44607;DHT22;30315;46.072;14.474;2023-07-31T13:23:21;30.00;58.80
44607;DHT22;30315;46.072;14.474;2023-07-31T13:25:48;29.90;59.10
44607;DHT22;30315;46.072;14.474;2023-07-31T13:28:15;29.80;59.30
44607;DHT22;30315;46.072;14.474;2023-07-31T13:30:42;29.80;59.80
44607;DHT22;30315;46.072;14.474;2023-07-31T13:33:09;29.80;60.00
44607;DHT22;30315;46.072;14.474;2023-07-31T13:35:55;29.90;59.70
44607;DHT22;30315;46.072;14.474;2023-07-31T13:38:22;30.00;59.00
44607;DHT22;30315;46.072;14.474;2023-07-31T13:40:49;30.00;58.40
44607;DHT22;30315;46.072;14.474;2023-07-31T13:43:16;29.90;58.70
44607;DHT22;30315;46.072;14.474;2023-07-31T13:45:43;30.00;59.30
44607;DHT22;30315;46.072;14.474;2023-07-31T13:48:10;30.00;59.10
44607;DHT22;30315;46.072;14.474;2023-07-31T13:50:37;30.00;58.20
44607;DHT22;30315;46.072;14.474;2023-07-31T13:53:04;30.00;57.70
44607;DHT22;30315;46.072;14.474;2023-07-31T13:55:31;29.90;57.70
44607;DHT22;30315;46.072;14.474;2023-07-31T13:57:58;29.80;58.40
44607;DHT22;30315;46.072;14.474;2023-07-31T14:00:25;29.70;57.70
44607;DHT22;30315;46.072;14.474;2023-07-31T14:02:52;29.60;58.00
44607;DHT22;30315;46.072;14.474;2023-07-31T14:05:19;29.50;58.90
44607;DHT22;30315;46.072;14.474;2023-07-31T14:07:46;29.40;59.20
44607;DHT22;30315;46.072;14.474;2023-07-31T14:10:13;29.50;59.80
44607;DHT22;30315;46.072;14.474;2023-07-31T14:12:40;29.70;60.30
44607;DHT22;30315;46.072;14.474;2023-07-31T14:15:10;29.70;59.10
44607;DHT22;30315;46.072;14.474;2023-07-31T14:17:37;29.90;60.30
44607;DHT22;30315;46.072;14.474;2023-07-31T14:20:04;30.10;61.40
44607;DHT22;30315;46.072;14.474;2023-07-31T14:22:32;30.20;60.20
44607;DHT22;30315;46.072;14.474;2023-07-31T14:25:01;30.30;59.30
44607;DHT22;30315;46.072;14.474;2023-07-31T14:27:28;30.40;58.30
44607;DHT22;30315;46.072;14.474;2023-07-31T14:29:55;30.40;57.60
44607;DHT22;30315;46.072;14.474;2023-07-31T14:32:22;30.50;58.30
44607;DHT22;30315;46.072;14.474;2023-07-31T14:34:52;30.70;58.10
44607;DHT22;30315;46.072;14.474;2023-07-31T14:37:19;30.90;58.30
44607;DHT22;30315;46.072;14.474;2023-07-31T14:39:46;31.10;58.00
44607;DHT22;30315;46.072;14.474;2023-07-31T14:42:13;31.20;56.90
44607;DHT22;30315;46.072;14.474;2023-07-31T14:44:40;31.20;57.10
44607;DHT22;30315;46.072;14.474;2023-07-31T14:47:07;31.20;56.80
44607;DHT22;30315;46.072;14.474;2023-07-31T14:49:34;31.20;56.20
44607;DHT22;30315;46.072;14.474;2023-07-31T14:52:01;31.30;56.30
44607;DHT22;30315;46.072;14.474;2023-07-31T14:54:28;31.40;56.80
44607;DHT22;30315;46.072;14.474;2023-07-31T14:56:55;31.50;55.90
44607;DHT22;30315;46.072;14.474;2023-07-31T14:59:22;31.60;55.00
44607;DHT22;30315;46.072;14.474;2023-07-31T15:01:49;31.80;55.40
44607;DHT22;30315;46.072;14.474;2023-07-31T15:04:16;31.90;55.70
44607;DHT22;30315;46.072;14.474;2023-07-31T15:06:42;32.10;54.40
44607;DHT22;30315;46.072;14.474;2023-07-31T15:09:09;32.30;53.90
44607;DHT22;30315;46.072;14.474;2023-07-31T15:11:36;32.40;53.50
44607;DHT22;30315;46.072;14.474;2023-07-31T15:14:03;32.50;52.90
44607;DHT22;30315;46.072;14.474;2023-07-31T15:16:30;32.60;53.10
44607;DHT22;30315;46.072;14.474;2023-07-31T15:18:58;32.70;52.70
44607;DHT22;30315;46.072;14.474;2023-07-31T15:21:25;32.80;52.70
44607;DHT22;30315;46.072;14.474;2023-07-31T15:23:52;33.00;52.80
44607;DHT22;30315;46.072;14.474;2023-07-31T15:26:19;33.10;52.10